Ridge, New York
Current Conditions -  °F | °C
As of 4:56 PM on Monday 20 Oct 2014 (Local Time) from KISP Reporting Station
Broken Clouds Broken Clouds  
Wind Chill: 58°   Ceiling: 25000
Heat Index: 58°   Visibility: 10mi
Dew Point: 40°   Wind: 14mph
Humidity: 51%   Direction: 200°SSW
Pressure: 29.98"   Gusts: 20mph
Location:  40.89°N, 72.89°W
Report Text: KISP 202056Z 20012G17KT 10SM FEW050 SCT200 BKN250 14/04 A2998 RMK AO2 SLP154 T01440044 58018
Loading
Personal Weather Stations






























Interactive Weather Map
Tropical Storm Tracking
New forecast layout! Learn more

10-Day Weather Forecast

Advertisements
Track Severe Weather on mobile